createdAt,value
2023-04-15T00:00:05.142Z,1.00
2023-04-15T00:03:14.705Z,0.80
2023-04-15T00:06:16.379Z,0.98
2023-04-15T00:09:17.849Z,1.00
2023-04-15T00:12:19.288Z,0.80
2023-04-15T00:15:20.768Z,0.90
2023-04-15T00:18:22.727Z,0.70
2023-04-15T00:21:24.252Z,1.30
2023-04-15T00:24:25.712Z,0.93
2023-04-15T00:27:27.161Z,1.00
2023-04-15T00:30:28.925Z,1.00
2023-04-15T00:33:30.395Z,1.00
2023-04-15T00:36:33.774Z,0.80
2023-04-15T00:39:35.410Z,1.00
2023-04-15T00:42:37.195Z,1.10
2023-04-15T00:45:38.968Z,0.90
2023-04-15T00:48:40.700Z,0.90
2023-04-15T00:51:42.143Z,0.77
2023-04-15T00:54:43.656Z,0.93
2023-04-15T00:57:45.457Z,0.90
2023-04-15T01:00:47.689Z,0.75
2023-04-15T01:03:51.233Z,0.77
2023-04-15T01:06:53.016Z,0.80
2023-04-15T01:09:54.584Z,0.85
2023-04-15T15:53:58.101Z,19.70
2023-04-15T15:56:59.545Z,17.48
2023-04-15T16:00:11.260Z,18.30
2023-04-15T16:03:15.814Z,16.40
2023-04-15T16:06:20.500Z,14.80
2023-04-15T16:09:22.370Z,13.90
2023-04-15T16:12:23.983Z,13.85
2023-04-15T16:15:26.260Z,13.63
2023-04-15T16:18:27.708Z,12.75
2023-04-15T16:21:29.280Z,12.10
2023-04-15T16:24:31.313Z,10.98
2023-04-15T16:27:40.751Z,10.23
2023-04-15T16:30:51.715Z,9.48
2023-04-15T16:33:53.204Z,8.70
2023-04-15T16:36:54.701Z,9.00
2023-04-15T16:39:56.116Z,8.43
2023-04-15T16:42:57.571Z,7.88
2023-04-15T16:45:59.170Z,7.43
2023-04-15T16:49:01.273Z,6.80
2023-04-15T16:52:02.916Z,7.20
2023-04-15T16:55:05.128Z,7.35
2023-04-15T16:58:08.457Z,6.97
2023-04-15T17:01:10.177Z,6.43
2023-04-15T17:04:14.556Z,6.60
2023-04-15T17:07:16.136Z,6.32
2023-04-15T17:10:17.585Z,6.15
2023-04-15T17:13:19.097Z,5.90
2023-04-15T17:16:20.638Z,5.90
2023-04-15T17:19:22.182Z,6.18
2023-04-15T17:22:23.668Z,7.13
2023-04-15T17:25:25.234Z,6.18
2023-04-15T17:28:26.741Z,5.57
2023-04-15T17:31:30.353Z,5.72
2023-04-15T17:34:50.696Z,5.25
2023-04-15T17:37:52.653Z,5.88
2023-04-15T17:40:54.836Z,5.85
2023-04-15T17:43:56.369Z,5.90
2023-04-15T17:46:58.049Z,5.40
2023-04-15T17:49:59.569Z,5.95
2023-04-15T17:53:01.101Z,5.30
2023-04-15T17:56:02.663Z,5.30
2023-04-15T17:59:04.338Z,5.18
2023-04-15T18:02:05.948Z,5.18
2023-04-15T18:05:08.711Z,4.57
2023-04-15T18:08:10.394Z,5.15
2023-04-15T18:11:12.470Z,5.35
2023-04-15T18:14:17.735Z,4.78
2023-04-15T18:17:28.425Z,4.57
2023-04-15T18:20:30.117Z,4.50
2023-04-15T18:23:31.590Z,4.43
2023-04-15T18:26:33.029Z,4.70
2023-04-15T18:29:35.417Z,4.07
2023-04-15T18:32:37.819Z,4.38
2023-04-15T18:35:39.382Z,4.13
2023-04-15T18:38:41.055Z,4.13
2023-04-15T18:41:42.582Z,3.90
2023-04-15T18:44:44.169Z,5.82
2023-04-15T18:47:46.027Z,5.65
2023-04-15T18:50:48.141Z,5.25
2023-04-15T18:53:49.664Z,5.45
2023-04-15T18:56:51.579Z,5.60
2023-04-15T18:59:54.233Z,4.97
2023-04-15T19:02:55.974Z,4.90
2023-04-15T19:05:57.545Z,5.10
2023-04-15T19:08:59.130Z,5.32
2023-04-15T19:12:01.687Z,5.20
2023-04-15T19:15:04.323Z,5.18
2023-04-15T19:18:10.338Z,5.30
2023-04-15T19:21:12.749Z,5.25
2023-04-15T19:24:14.696Z,5.03
2023-04-15T19:27:16.314Z,4.43
2023-04-15T19:30:17.944Z,4.68
2023-04-15T19:33:19.528Z,4.53
2023-04-15T19:36:21.296Z,4.50
2023-04-15T19:39:23.719Z,4.88
2023-04-15T19:42:25.286Z,4.70
2023-04-15T19:45:26.796Z,4.38
2023-04-15T19:48:28.321Z,4.45
2023-04-15T19:51:29.899Z,3.92
2023-04-15T19:54:32.315Z,4.45
2023-04-15T19:57:33.956Z,4.00
2023-04-15T20:00:36.414Z,4.13
2023-04-15T20:03:38.165Z,4.03
2023-04-15T20:06:39.733Z,4.25
2023-04-15T20:09:43.680Z,3.97
2023-04-15T20:12:50.712Z,3.60
2023-04-15T20:15:54.027Z,3.53
2023-04-15T20:18:55.700Z,3.60
2023-04-15T20:21:57.199Z,4.10
2023-04-15T20:25:00.348Z,3.40
2023-04-15T20:28:02.652Z,3.92
2023-04-15T20:31:04.254Z,3.35
2023-04-15T20:34:05.855Z,3.53
2023-04-15T20:37:07.481Z,3.63
2023-04-15T20:40:09.580Z,4.00
2023-04-15T20:43:11.536Z,4.07
2023-04-15T20:46:20.250Z,5.03
2023-04-15T20:49:22.804Z,4.38
2023-04-15T20:52:24.357Z,4.53
2023-04-15T20:55:25.988Z,4.50
2023-04-15T20:58:27.522Z,4.40
2023-04-15T21:01:29.043Z,4.20
2023-04-15T21:04:30.763Z,4.30
2023-04-15T21:07:32.376Z,4.18
2023-04-15T21:10:35.287Z,3.58
2023-04-15T21:13:36.821Z,4.47
2023-04-15T21:16:38.380Z,3.42
2023-04-15T21:19:40.510Z,4.20
2023-04-15T21:22:42.496Z,4.03
2023-04-15T21:25:43.975Z,3.50
2023-04-15T21:28:45.753Z,3.70
2023-04-15T21:31:47.292Z,3.30
2023-04-15T21:34:48.839Z,3.88
2023-04-15T21:37:50.317Z,3.50
2023-04-15T21:40:51.807Z,3.80
2023-04-15T21:43:53.402Z,4.28
2023-04-15T21:46:54.953Z,4.63
2023-04-15T21:49:56.530Z,4.07
2023-04-15T21:52:58.100Z,3.58
2023-04-15T21:55:59.597Z,3.80
2023-04-15T21:59:01.302Z,4.15
2023-04-15T22:02:02.986Z,3.70
2023-04-15T22:05:05.400Z,3.97
2023-04-15T22:08:07.790Z,4.03
2023-04-15T22:11:09.940Z,3.45
2023-04-15T22:14:11.477Z,3.70
2023-04-15T22:17:13.114Z,3.40
2023-04-15T22:20:14.725Z,3.70
2023-04-15T22:23:19.766Z,3.35
2023-04-15T22:26:21.689Z,3.42
2023-04-15T22:29:23.217Z,4.50
2023-04-15T22:32:24.790Z,4.88
2023-04-15T22:35:26.356Z,4.47
2023-04-15T22:38:27.887Z,4.10
2023-04-15T22:41:29.399Z,4.03
2023-04-15T22:44:31.171Z,4.32
2023-04-15T22:47:32.689Z,4.22
2023-04-15T22:50:37.150Z,4.00
2023-04-15T22:53:38.674Z,4.15
2023-04-15T22:56:40.772Z,4.05
2023-04-15T22:59:42.236Z,4.18
2023-04-15T23:02:43.804Z,3.92
2023-04-15T23:05:45.604Z,3.90
2023-04-15T23:08:47.744Z,3.88
2023-04-15T23:11:49.410Z,3.38
2023-04-15T23:14:50.901Z,3.70
2023-04-15T23:17:52.419Z,3.60
2023-04-15T23:20:54.272Z,3.33
2023-04-15T23:23:55.915Z,3.28
2023-04-15T23:26:57.368Z,3.30
2023-04-15T23:29:58.853Z,3.25
2023-04-15T23:33:01.463Z,4.93
2023-04-15T23:36:03.099Z,4.60
2023-04-15T23:39:04.687Z,4.40
2023-04-15T23:42:06.612Z,4.10
2023-04-15T23:45:09.644Z,4.30
2023-04-15T23:48:11.103Z,4.65
2023-04-15T23:51:12.565Z,4.38
2023-04-15T23:54:14.882Z,3.67
2023-04-15T23:57:16.538Z,3.88
